Time;durP1;ratioP1;P1;durP2;ratioP2;P2;SDS_P1;SDS_P2;PMS_P1;PMS_P2;Temp;Humidity;BMP_temperature;BMP_pressure;BME280_temperature;BME280_humidity;BME280_pressure;Samples;Min_cycle;Max_cycle;Signal;HPM_P1;HPM_P2
2022/06/02 00:02:32;;;;;;;;;2.00;2.00;;;;;18.91;38.78;101384.47;4958717;28;45441;-71
2022/06/02 00:05:06;;;;;;;;;2.50;2.50;;;;;18.86;38.81;101382.00;4943152;28;45560;-71
2022/06/02 00:07:58;;;;;;;;;1.50;1.25;;;;;18.81;38.57;101379.56;4947830;28;46387;-71
2022/06/02 00:10:33;;;;;;;;;3.00;3.00;;;;;18.77;38.65;101383.38;4943333;28;45534;-71
2022/06/02 00:13:29;;;;;;;;;3.25;3.00;;;;;18.77;38.85;101387.94;4956387;28;45461;-71
2022/06/02 00:16:00;;;;;;;;;3.00;3.00;;;;;18.74;39.09;101388.97;4956471;28;45333;-71
2022/06/02 00:18:51;;;;;;;;;2.00;2.00;;;;;18.62;38.84;101377.00;4958480;28;47194;-71
2022/06/02 00:21:37;;;;;;;;;3.50;2.25;;;;;18.64;38.87;101388.63;4953572;28;45455;-71
2022/06/02 00:24:06;;;;;;;;;3.00;3.00;;;;;18.60;39.52;101397.00;4941369;28;45321;-71
2022/06/02 00:26:50;;;;;;;;;2.25;2.00;;;;;18.61;39.32;101396.03;4958526;28;45474;-71
2022/06/02 00:29:36;;;;;;;;;3.50;2.00;;;;;18.64;39.10;101401.25;4943495;28;47244;-71
2022/06/02 00:32:26;;;;;;;;;3.00;2.25;;;;;18.57;39.41;101398.03;4958001;28;45714;-71
2022/06/02 00:35:10;;;;;;;;;1.75;1.75;;;;;18.48;39.59;101399.41;4958614;28;45273;-71
2022/06/02 00:38:03;;;;;;;;;3.00;2.25;;;;;18.41;39.78;101389.00;4958447;28;45321;-71
2022/06/02 00:40:30;;;;;;;;;1.50;1.50;;;;;18.36;39.40;101402.81;4955878;28;45406;-71
2022/06/02 00:43:30;;;;;;;;;2.25;2.25;;;;;18.33;39.48;101400.25;4945096;28;45223;-71
2022/06/02 00:46:11;;;;;;;;;3.00;3.00;;;;;18.32;39.97;101407.47;4948281;28;45414;-72
2022/06/02 00:48:37;;;;;;;;;2.00;2.00;;;;;18.24;39.82;101407.03;4956928;28;45510;-71
2022/06/02 00:51:10;;;;;;;;;3.25;1.75;;;;;18.18;39.71;101395.69;4958377;28;45219;-71
2022/06/02 00:59:57;;;;;;;;;2.00;2.00;;;;;17.89;40.35;101396.28;4943093;28;45233;-71
2022/06/02 01:02:25;;;;;;;;;2.50;2.50;;;;;17.84;40.25;101398.34;4957863;28;46247;-71
2022/06/02 01:04:52;;;;;;;;;2.00;1.75;;;;;17.70;40.64;101385.53;4951147;28;45465;-71
2022/06/02 01:07:53;;;;;;;;;6.00;4.00;;;;;17.72;40.52;101391.72;4926892;28;45303;-71
2022/06/02 01:10:50;;;;;;;;;3.00;2.50;;;;;17.67;40.41;101388.38;4940789;28;45376;-71
2022/06/02 01:13:36;;;;;;;;;2.50;2.50;;;;;17.66;40.54;101399.25;4941689;28;48382;-71
2022/06/02 01:16:36;;;;;;;;;2.25;2.25;;;;;17.63;41.03;101394.91;4955201;28;45307;-71
2022/06/02 01:19:17;;;;;;;;;3.50;3.50;;;;;17.56;41.32;101396.19;4943100;28;45233;-71
2022/06/02 01:22:16;;;;;;;;;3.25;3.25;;;;;17.50;41.26;101394.66;4943589;28;45609;-71
2022/06/02 01:25:06;;;;;;;;;4.25;4.25;;;;;17.45;41.14;101391.31;4936223;28;45458;-71
2022/06/02 01:27:47;;;;;;;;;3.00;3.00;;;;;17.44;41.29;101396.78;4939053;28;45627;-71
2022/06/02 01:30:44;;;;;;;;;3.00;3.00;;;;;17.40;41.44;101402.34;4951410;28;45246;-71
2022/06/02 01:33:46;;;;;;;;;4.25;4.25;;;;;17.36;41.76;101389.09;4940811;28;45588;-71
2022/06/02 01:36:30;;;;;;;;;4.00;3.00;;;;;17.36;41.55;101386.41;4957620;28;45322;-71
2022/06/02 01:39:04;;;;;;;;;3.00;3.00;;;;;17.37;41.74;101391.72;4945491;28;45577;-71
2022/06/02 01:41:47;;;;;;;;;4.00;4.00;;;;;17.37;41.77;101391.72;4942273;28;45315;-71
2022/06/02 01:44:30;;;;;;;;;5.50;4.50;;;;;17.39;41.65;101386.22;4935668;28;45395;-71
2022/06/02 01:47:03;;;;;;;;;2.75;2.75;;;;;17.39;42.09;101397.91;4955160;28;45366;-71
2022/06/02 01:49:55;;;;;;;;;5.25;5.25;;;;;17.38;41.85;101401.56;4956091;28;45484;-71
2022/06/02 01:52:51;;;;;;;;;6.00;4.75;;;;;17.32;41.65;101404.56;4941780;28;45372;-71
2022/06/02 01:55:35;;;;;;;;;3.50;3.50;;;;;17.31;42.02;101410.91;4956589;28;45410;-71
2022/06/02 01:58:15;;;;;;;;;4.25;4.25;;;;;17.24;41.90;101406.78;4944388;28;48293;-71
2022/06/02 02:00:45;;;;;;;;;4.50;4.00;;;;;17.19;42.57;101406.13;4938732;28;45347;-71
2022/06/02 02:03:24;;;;;;;;;5.00;5.00;;;;;17.19;42.18;101407.00;4955078;28;45514;-71
2022/06/02 02:06:27;;;;;;;;;6.00;4.50;;;;;17.15;42.43;101405.41;4957292;28;45189;-71
2022/06/02 02:09:18;;;;;;;;;4.00;4.00;;;;;17.04;42.35;101395.16;4957623;28;47362;-71
2022/06/02 02:11:44;;;;;;;;;3.50;3.50;;;;;17.10;42.78;101404.75;4950718;28;45500;-71
2022/06/02 02:14:31;;;;;;;;;5.00;5.00;;;;;17.07;42.75;101395.94;4960287;28;45429;-71
2022/06/02 02:17:02;;;;;;;;;5.00;4.00;;;;;17.03;42.74;101401.47;4959966;28;45305;-71
2022/06/02 02:19:43;;;;;;;;;4.25;4.25;;;;;16.98;42.62;101408.94;4959952;28;46070;-71
2022/06/02 02:22:43;;;;;;;;;4.75;4.75;;;;;16.94;42.67;101396.56;4960089;28;45221;-71
2022/06/02 02:25:15;;;;;;;;;6.00;4.00;;;;;16.85;43.15;101397.84;4939738;28;45312;-70
2022/06/02 02:28:07;;;;;;;;;6.00;4.00;;;;;16.80;43.00;101385.53;4952186;28;45266;-71
2022/06/02 02:30:45;;;;;;;;;5.50;5.50;;;;;16.81;43.20;101398.06;4956087;28;45378;-71
2022/06/02 02:33:21;;;;;;;;;4.75;4.75;;;;;16.80;43.41;101390.91;4958650;28;45522;-71
2022/06/02 02:36:17;;;;;;;;;3.00;3.00;;;;;16.83;43.40;101388.94;4958599;28;45577;-71
2022/06/02 02:38:48;;;;;;;;;6.50;5.25;;;;;16.83;43.44;101386.25;4959814;28;45654;-71
2022/06/02 02:41:23;;;;;;;;;7.00;6.25;;;;;16.78;43.20;101390.13;4958039;28;45264;-71
2022/06/02 02:44:17;;;;;;;;;6.50;6.00;;;;;16.74;43.20;101383.09;4936375;28;45215;-71
2022/06/02 02:47:11;;;;;;;;;2.00;2.00;;;;;16.72;43.56;101391.25;4936929;28;45222;-71
2022/06/02 02:49:46;;;;;;;;;4.75;4.75;;;;;16.75;43.63;101395.66;4944775;28;45364;-71
2022/06/02 02:52:30;;;;;;;;;4.00;4.00;;;;;16.80;43.43;101404.38;4958979;28;45513;-71
2022/06/02 02:55:09;;;;;;;;;6.00;6.00;;;;;16.85;43.56;101405.06;4959189;28;45365;-71
2022/06/02 02:58:07;;;;;;;;;5.25;4.00;;;;;16.85;43.42;101399.69;4924090;28;45383;-71
2022/06/02 03:00:59;;;;;;;;;5.50;5.50;;;;;16.89;43.61;101406.69;4954673;28;45506;-71
2022/06/02 03:03:36;;;;;;;;;5.00;5.00;;;;;16.85;43.55;101405.06;4944914;28;45154;-71
2022/06/02 03:06:20;;;;;;;;;5.00;5.00;;;;;16.85;43.42;101395.16;4950046;28;45309;-71
2022/06/02 03:09:13;;;;;;;;;7.00;7.00;;;;;16.89;43.75;101409.38;4950377;28;45301;-71
2022/06/02 03:11:53;;;;;;;;;5.00;5.00;;;;;16.88;43.40;101401.38;4946659;28;45258;-71
2022/06/02 03:14:30;;;;;;;;;8.00;6.25;;;;;16.82;43.45;101395.28;4945929;28;45339;-71
2022/06/02 03:17:14;;;;;;;;;7.00;7.00;;;;;16.76;43.64;101386.63;4939155;28;45842;-71
2022/06/02 03:19:56;;;;;;;;;6.25;6.25;;;;;16.68;43.59;101384.28;4948302;28;45450;-71
2022/06/02 03:22:39;;;;;;;;;5.75;5.50;;;;;16.63;44.09;101384.50;4953682;28;45375;-71
2022/06/02 03:25:04;;;;;;;;;6.75;6.75;;;;;16.71;43.87;101402.16;4958102;28;48407;-70
2022/06/02 03:28:08;;;;;;;;;5.00;5.00;;;;;16.68;43.65;101395.94;4951277;28;45283;-71
2022/06/02 03:31:06;;;;;;;;;7.00;7.00;;;;;16.68;43.71;101405.84;4938526;28;45378;-71
2022/06/02 03:33:50;;;;;;;;;8.00;6.50;;;;;16.70;43.80;101403.09;4915643;28;45463;-71
2022/06/02 03:36:26;;;;;;;;;4.50;4.50;;;;;16.72;43.77;101407.44;4943892;28;45220;-70
2022/06/02 03:39:03;;;;;;;;;6.75;6.75;;;;;16.76;43.93;101408.19;4954973;28;45698;-71
2022/06/02 03:41:58;;;;;;;;;6.00;6.00;;;;;16.77;43.94;101407.22;4939700;28;45488;-71
2022/06/02 03:44:42;;;;;;;;;4.75;4.75;;;;;16.71;43.71;101403.00;4944378;28;45645;-70
2022/06/02 03:47:27;;;;;;;;;6.00;6.00;;;;;16.73;43.86;101421.81;4952777;28;46999;-70
2022/06/02 03:49:58;;;;;;;;;6.25;6.25;;;;;16.74;44.14;101410.06;4940514;28;45317;-71
2022/06/02 03:53:04;;;;;;;;;7.00;7.00;;;;;16.64;44.15;101393.47;4954675;28;45188;-71
2022/06/02 03:55:44;;;;;;;;;6.50;6.50;;;;;16.63;43.99;101400.66;4977846;28;46230;-71
2022/06/02 03:58:23;;;;;;;;;6.25;6.25;;;;;16.57;44.03;101397.38;4955962;28;45326;-71
2022/06/02 04:00:53;;;;;;;;;7.75;7.00;;;;;16.53;44.09;101396.66;4957141;28;45632;-71
2022/06/02 04:03:31;;;;;;;;;6.00;6.00;;;;;16.55;44.17;101397.47;4943846;28;45490;-71
2022/06/02 04:06:15;;;;;;;;;6.50;6.50;;;;;16.55;44.09;101407.38;4934644;28;45561;-71
2022/06/02 04:08:53;;;;;;;;;6.50;6.50;;;;;16.54;44.14;101406.50;4958068;28;45377;-71
2022/06/02 04:14:49;;;;;;;;;8.00;8.00;;;;;16.43;44.38;101390.81;4958732;28;45310;-70
2022/06/02 04:17:47;;;;;;;;;6.00;6.00;;;;;16.48;44.49;101406.78;4946066;28;45388;-71
2022/06/02 04:20:36;;;;;;;;;5.25;5.25;;;;;16.47;44.39;101424.78;4958899;28;45437;-70
2022/06/02 04:23:45;;;;;;;;;8.00;8.00;;;;;16.43;44.48;101430.38;4956361;28;45426;-71
2022/06/02 04:26:48;;;;;;;;;7.00;6.00;;;;;16.42;44.66;101420.53;4958836;28;45255;-70
2022/06/02 04:29:22;;;;;;;;;8.75;7.75;;;;;16.39;44.55;101424.25;4943994;28;45324;-71
2022/06/02 04:32:22;;;;;;;;;6.75;6.75;;;;;16.26;44.45;101401.53;4957669;28;45610;-71
2022/06/02 04:35:00;;;;;;;;;8.25;7.50;;;;;16.41;44.65;101426.88;4957438;28;45330;-71
2022/06/02 04:37:50;;;;;;;;;9.00;9.00;;;;;16.35;44.51;101436.09;4958578;28;45252;-70
2022/06/02 04:40:42;;;;;;;;;8.75;7.50;;;;;16.37;44.71;101441.44;4943690;28;45490;-71
2022/06/02 04:43:17;;;;;;;;;8.25;8.25;;;;;16.35;44.67;101437.94;4958100;28;45479;-71
2022/06/02 04:46:07;;;;;;;;;7.25;7.00;;;;;16.34;44.67;101439.78;4958120;28;45417;-71
2022/06/02 04:48:52;;;;;;;;;8.75;7.75;;;;;16.33;44.93;101440.69;4956849;28;45546;-71
2022/06/02 04:51:33;;;;;;;;;8.25;7.25;;;;;16.25;44.76;101437.47;4956887;28;45701;-70
2022/06/02 04:54:12;;;;;;;;;7.00;7.00;;;;;16.22;44.85;101434.91;4955786;28;45490;-71
2022/06/02 04:57:07;;;;;;;;;6.50;6.50;;;;;16.20;44.95;101431.41;4955750;28;45410;-70
2022/06/02 04:59:57;;;;;;;;;9.00;8.00;;;;;16.19;44.87;101438.63;4949176;28;45389;-70
2022/06/02 05:02:36;;;;;;;;;8.00;8.00;;;;;16.19;45.03;101435.94;4956610;28;45457;-71
2022/06/02 05:05:17;;;;;;;;;8.00;8.00;;;;;16.20;45.01;101434.97;4944900;28;46381;-71
2022/06/02 05:07:52;;;;;;;;;9.50;8.25;;;;;16.24;45.06;101427.66;4953307;28;45516;-71
2022/06/02 05:10:47;;;;;;;;;8.00;8.00;;;;;16.25;45.20;101427.56;4948861;28;45576;-71
2022/06/02 05:13:35;;;;;;;;;10.75;8.25;;;;;16.22;45.12;101424.13;4941464;28;45238;-71
2022/06/02 05:16:19;;;;;;;;;8.50;7.75;;;;;16.27;45.15;101435.56;4941398;28;46425;-70
2022/06/02 05:19:05;;;;;;;;;8.00;8.00;;;;;16.34;45.22;101431.69;4950497;28;45624;-71
2022/06/02 05:21:49;;;;;;;;;6.00;5.75;;;;;16.39;45.29;101432.34;4937788;28;45241;-71
2022/06/02 05:24:36;;;;;;;;;7.50;7.50;;;;;16.44;44.96;101432.16;4957665;28;45333;-70
2022/06/02 05:27:14;;;;;;;;;8.75;8.75;;;;;16.44;45.05;101435.69;4943041;28;47406;-70
2022/06/02 05:30:00;;;;;;;;;10.75;10.75;;;;;16.45;45.03;101437.44;4947221;28;45249;-70
2022/06/02 05:32:57;;;;;;;;;7.50;7.50;;;;;16.43;44.93;101438.47;4957568;28;45561;-71
2022/06/02 05:35:48;;;;;;;;;8.75;8.75;;;;;16.34;45.24;101439.78;4935318;28;45642;-70
2022/06/02 05:38:28;;;;;;;;;8.00;8.00;;;;;16.35;45.15;101429.84;4942212;28;47118;-70
2022/06/02 05:41:28;;;;;;;;;8.50;8.50;;;;;16.38;45.22;101432.41;4945290;28;45341;-70
2022/06/02 05:44:19;;;;;;;;;8.00;8.00;;;;;16.43;45.11;101430.38;4950634;28;45386;-71
2022/06/02 05:46:55;;;;;;;;;8.25;8.25;;;;;16.37;45.17;101430.66;4959929;28;45273;-71
2022/06/02 05:49:39;;;;;;;;;10.00;9.75;;;;;16.32;45.20;101438.94;4960652;28;46163;-71
2022/06/02 05:52:25;;;;;;;;;10.25;9.50;;;;;16.28;45.46;101429.25;4960519;28;45474;-70
2022/06/02 05:55:27;;;;;;;;;11.75;11.50;;;;;16.29;45.34;101434.56;4960466;28;45303;-70
2022/06/02 05:58:08;;;;;;;;;6.50;6.50;;;;;16.26;45.31;101436.53;4948878;28;45323;-71
2022/06/02 06:00:57;;;;;;;;;10.00;9.00;;;;;16.26;45.49;101436.53;4940263;28;47496;-71
2022/06/02 06:03:25;;;;;;;;;10.00;9.50;;;;;16.27;45.47;101441.88;4929702;28;45568;-71
2022/06/02 06:06:01;;;;;;;;;10.75;9.75;;;;;16.18;45.57;101426.09;4945515;28;45478;-71
2022/06/02 06:08:47;;;;;;;;;9.00;9.00;;;;;16.22;45.91;101430.41;4960247;28;45352;-71
2022/06/02 06:11:30;;;;;;;;;9.50;8.25;;;;;16.26;45.57;101432.03;4946711;28;45363;-71
2022/06/02 06:14:17;;;;;;;;;10.00;10.00;;;;;16.25;45.70;101438.34;4953717;28;46322;-71
2022/06/02 06:16:48;;;;;;;;;9.00;7.50;;;;;16.27;45.96;101438.28;4946791;28;45511;-71
2022/06/02 06:19:25;;;;;;;;;8.25;7.75;;;;;16.33;46.08;101442.53;4938632;28;45299;-71
2022/06/02 06:22:11;;;;;;;;;10.25;8.50;;;;;16.38;45.93;101437.81;4946124;28;45488;-71
2022/06/02 06:24:50;;;;;;;;;10.00;9.00;;;;;16.41;45.74;101443.06;4948194;28;45527;-71
2022/06/02 06:27:34;;;;;;;;;13.00;12.00;;;;;16.38;45.61;101435.09;4941612;28;45403;-71
2022/06/02 06:30:06;;;;;;;;;9.50;8.00;;;;;16.34;45.85;101444.25;4970027;28;45343;-71
2022/06/02 06:33:02;;;;;;;;;7.50;7.50;;;;;16.32;45.94;101428.16;4938004;28;46341;-71
2022/06/02 06:35:46;;;;;;;;;10.00;10.00;;;;;16.37;45.85;101441.44;4966485;28;45248;-71
2022/06/02 06:38:11;;;;;;;;;6.75;6.00;;;;;16.34;45.95;101426.28;4935946;28;45623;-71
2022/06/02 06:41:18;;;;;;;;;9.00;7.75;;;;;16.37;45.81;101436.03;4956942;28;45602;-71
2022/06/02 06:43:51;;;;;;;;;12.00;11.25;;;;;16.42;46.44;101442.09;4937163;28;45350;-71
2022/06/02 06:46:33;;;;;;;;;9.25;8.75;;;;;16.46;46.32;101431.09;4943742;28;45412;-71
2022/06/02 06:49:09;;;;;;;;;9.00;9.00;;;;;16.48;46.30;101422.97;4956370;28;45350;-71
2022/06/02 06:52:08;;;;;;;;;11.25;11.25;;;;;16.57;45.78;101435.13;4928722;28;45444;-71
2022/06/02 06:55:03;;;;;;;;;11.00;8.50;;;;;16.44;45.87;101434.84;4925353;28;48230;-71
2022/06/02 06:57:43;;;;;;;;;10.00;9.75;;;;;16.53;46.24;101452.41;5021990;28;45369;-71
2022/06/02 07:00:19;;;;;;;;;11.25;10.50;;;;;16.52;46.01;101448.81;4959368;28;45456;-71
2022/06/02 07:02:59;;;;;;;;;9.25;9.25;;;;;16.55;45.87;101440.59;4953220;28;45944;-71
2022/06/02 07:05:39;;;;;;;;;9.25;9.25;;;;;16.58;45.96;101442.28;4946875;28;46414;-71
2022/06/02 07:08:10;;;;;;;;;11.75;9.00;;;;;16.61;46.14;101440.31;4959219;28;45494;-71
2022/06/02 07:10:49;;;;;;;;;10.75;8.50;;;;;16.61;46.18;101432.22;4949151;28;45456;-71
2022/06/02 07:13:26;;;;;;;;;11.75;9.50;;;;;16.75;46.25;101441.47;4959549;28;45241;-72
2022/06/02 07:16:14;;;;;;;;;13.00;11.50;;;;;16.82;45.95;101442.94;4953075;28;46246;-71
2022/06/02 07:18:58;;;;;;;;;8.75;8.75;;;;;16.87;45.81;101453.53;4955978;28;45383;-71
2022/06/02 07:21:49;;;;;;;;;9.50;9.50;;;;;16.88;45.65;101444.50;4958149;28;45429;-71
2022/06/02 07:24:39;;;;;;;;;10.25;8.25;;;;;16.98;45.95;101456.59;4959288;28;45402;-72
2022/06/02 07:27:19;;;;;;;;;9.50;9.50;;;;;17.02;45.46;101444.72;4941798;28;46496;-72
2022/06/02 07:30:09;;;;;;;;;11.75;10.50;;;;;17.07;45.30;101452.59;4949106;28;45448;-72
2022/06/02 07:32:55;;;;;;;;;8.00;8.00;;;;;17.10;45.50;101450.59;4945195;28;45490;-72
2022/06/02 07:35:42;;;;;;;;;7.50;7.50;;;;;17.18;45.35;101445.72;4949403;28;45548;-72
2022/06/02 07:38:23;;;;;;;;;12.25;9.75;;;;;17.26;45.78;101444.47;4947691;28;45636;-71
2022/06/02 07:41:16;;;;;;;;;12.25;8.50;;;;;17.33;45.63;101460.28;4946705;28;45469;-72
2022/06/02 07:44:01;;;;;;;;;8.25;6.50;;;;;17.44;45.24;101467.88;4959230;28;45170;-71
2022/06/02 07:47:08;;;;;;;;;6.75;5.25;;;;;17.53;44.80;101458.44;4958540;28;45375;-71
2022/06/02 07:49:52;;;;;;;;;9.00;9.00;;;;;17.60;44.76;101459.84;4936879;28;46971;-72
2022/06/02 07:52:29;;;;;;;;;7.25;7.25;;;;;17.64;44.88;101458.75;4947350;28;45644;-72
2022/06/02 07:55:07;;;;;;;;;6.25;6.25;;;;;17.79;44.62;101462.47;4955449;28;45351;-72
2022/06/02 07:57:47;;;;;;;;;8.00;8.00;;;;;17.81;44.21;101452.50;4958828;28;45304;-71
2022/06/02 08:00:25;;;;;;;;;3.25;3.25;;;;;17.89;43.72;101455.72;4958685;28;46272;-72
2022/06/02 08:03:19;;;;;;;;;6.25;6.00;;;;;17.89;43.89;101449.41;4943942;28;45186;-71
2022/06/02 08:05:47;;;;;;;;;8.75;8.50;;;;;17.97;43.69;101447.19;4949989;28;45283;-71
2022/06/02 08:08:29;;;;;;;;;6.50;6.00;;;;;18.04;43.72;101447.75;4942210;28;45571;-72
2022/06/02 08:11:07;;;;;;;;;7.00;6.75;;;;;18.14;44.44;101433.69;4949269;28;47341;-72
2022/06/02 08:13:51;;;;;;;;;11.00;6.75;;;;;18.27;43.69;101428.47;4959514;28;45331;-71
2022/06/02 08:16:27;;;;;;;;;7.50;5.50;;;;;18.32;43.31;101417.44;4956960;28;45385;-71
2022/06/02 08:19:10;;;;;;;;;5.75;5.75;;;;;18.42;43.82;101412.41;4958634;28;45323;-71
2022/06/02 08:21:45;;;;;;;;;7.50;7.50;;;;;18.49;43.18;101417.41;4958619;28;45497;-71
2022/06/02 08:24:33;;;;;;;;;6.25;6.25;;;;;18.61;43.18;101420.34;4955685;28;46039;-72
2022/06/02 08:27:17;;;;;;;;;4.00;4.00;;;;;18.65;42.95;101416.53;4948662;28;45421;-72
2022/06/02 08:29:48;;;;;;;;;4.75;4.75;;;;;18.73;43.04;101408.88;4948187;28;45341;-71
2022/06/02 08:32:27;;;;;;;;;5.25;5.25;;;;;18.82;42.61;101415.59;4939769;28;48179;-71
2022/06/02 08:35:16;;;;;;;;;6.75;5.50;;;;;18.90;42.72;101412.50;4957107;28;45424;-72
2022/06/02 08:38:04;;;;;;;;;6.25;6.25;;;;;18.94;42.53;101403.22;4958708;28;45315;-72
2022/06/02 08:40:45;;;;;;;;;6.75;5.50;;;;;18.98;42.65;101410.22;4955826;28;46366;-72
2022/06/02 08:43:47;;;;;;;;;3.50;3.50;;;;;18.99;41.75;101406.53;4958380;28;45697;-72
2022/06/02 08:46:25;;;;;;;;;7.25;6.00;;;;;18.99;42.30;101388.47;4958015;28;45428;-72
2022/06/02 08:49:27;;;;;;;;;5.25;5.25;;;;;18.99;42.16;101391.19;4942525;28;45402;-72
2022/06/02 08:52:11;;;;;;;;;4.25;4.25;;;;;19.10;42.01;101390.56;4958305;28;45400;-72
2022/06/02 08:55:06;;;;;;;;;7.75;6.50;;;;;19.08;41.46;101384.38;4946385;28;45390;-72
2022/06/02 08:57:59;;;;;;;;;5.25;5.25;;;;;19.15;41.71;101393.03;4940651;28;45577;-73
2022/06/02 09:00:57;;;;;;;;;4.75;4.00;;;;;19.20;41.96;101397.19;4958297;28;45307;-72
2022/06/02 09:03:53;;;;;;;;;3.75;3.50;;;;;19.21;41.65;101388.13;4957967;28;45305;-72
2022/06/02 09:06:41;;;;;;;;;4.00;4.00;;;;;19.27;41.65;101386.88;4951105;28;45355;-72
2022/06/02 09:09:25;;;;;;;;;4.25;4.00;;;;;19.34;41.58;101384.69;4958098;28;45564;-72
2022/06/02 09:12:33;;;;;;;;;6.50;5.00;;;;;19.39;41.75;101382.56;4958143;28;45346;-72
2022/06/02 09:15:27;;;;;;;;;4.25;4.25;;;;;19.48;42.00;101386.56;4957966;28;45265;-72
2022/06/02 09:17:56;;;;;;;;;4.75;4.75;;;;;19.58;41.19;101388.66;4947079;28;46817;-72
2022/06/02 09:20:46;;;;;;;;;6.50;4.00;;;;;19.63;41.11;101391.09;4953088;28;45467;-72
2022/06/02 09:23:17;;;;;;;;;2.75;2.75;;;;;19.67;41.09;101397.19;4961035;28;45323;-72
2022/06/02 09:26:41;;;;;;;;;5.50;3.75;;;;;19.70;41.12;101391.59;4960702;28;45465;-72
2022/06/02 09:29:18;;;;;;;;;3.75;3.75;;;;;19.78;41.15;101389.31;4923761;28;47225;-72
2022/06/02 09:32:02;;;;;;;;;4.00;4.00;;;;;19.85;40.84;101406.94;4960725;28;45357;-71
2022/06/02 09:34:52;;;;;;;;;5.75;5.75;;;;;19.90;40.76;101396.69;4960856;28;45417;-72
2022/06/02 09:37:45;;;;;;;;;5.25;5.25;;;;;19.96;40.45;101403.53;4958707;28;45242;-71
2022/06/02 09:40:13;;;;;;;;;4.25;4.25;;;;;19.94;40.19;101398.22;4960509;28;45486;-72
2022/06/02 09:42:44;;;;;;;;;6.00;4.25;;;;;19.98;39.81;101394.38;4960538;28;45158;-72
2022/06/02 09:45:47;;;;;;;;;5.00;5.00;;;;;20.01;39.90;101390.59;4959124;28;45497;-72
2022/06/02 09:48:35;;;;;;;;;5.50;5.50;;;;;20.04;40.15;101389.53;4949746;28;45775;-72
2022/06/02 09:51:31;;;;;;;;;4.50;4.50;;;;;20.06;39.74;101395.72;4960473;28;46103;-72
2022/06/02 09:54:02;;;;;;;;;7.75;5.75;;;;;20.09;39.97;101396.41;4960461;28;45292;-72
2022/06/02 09:57:00;;;;;;;;;5.00;5.00;;;;;20.11;40.01;101393.59;4945966;28;45368;-72
2022/06/02 09:59:29;;;;;;;;;5.50;4.50;;;;;20.16;39.89;101392.38;4960155;28;45581;-72
2022/06/02 10:02:25;;;;;;;;;3.00;2.00;;;;;20.22;40.23;101392.94;4947326;28;45326;-72
2022/06/02 10:05:24;;;;;;;;;5.00;5.00;;;;;20.29;39.76;101384.31;4960181;28;45683;-72
2022/06/02 10:08:00;;;;;;;;;4.00;4.00;;;;;20.28;39.34;101370.84;4960187;28;45337;-72
2022/06/02 10:10:25;;;;;;;;;5.25;5.25;;;;;20.39;39.77;101379.19;4960342;28;45342;-72
2022/06/02 10:13:15;;;;;;;;;4.00;4.00;;;;;20.43;39.56;101371.72;4960240;28;45392;-72
2022/06/02 10:15:41;;;;;;;;;7.00;7.00;;;;;20.47;39.40;101378.72;4949870;28;45367;-72
2022/06/02 10:18:37;;;;;;;;;5.00;5.00;;;;;20.50;39.71;101370.38;4958940;28;45400;-72
2022/06/02 10:21:14;;;;;;;;;5.00;5.00;;;;;20.59;39.58;101366.19;4952075;28;45690;-72
2022/06/02 10:24:13;;;;;;;;;4.00;4.00;;;;;20.65;39.46;101372.13;4951383;28;47212;-72
2022/06/02 10:26:57;;;;;;;;;4.75;4.75;;;;;20.71;39.10;101362.72;4951071;28;45327;-72
2022/06/02 10:29:43;;;;;;;;;2.00;2.00;;;;;20.78;38.81;101363.19;4933902;28;45226;-72
2022/06/02 10:32:18;;;;;;;;;7.00;5.25;;;;;20.78;38.79;101353.22;4959973;28;45202;-72
2022/06/02 10:34:46;;;;;;;;;5.25;5.00;;;;;20.90;39.04;101357.81;4949291;28;46236;-72
2022/06/02 10:37:37;;;;;;;;;5.75;4.00;;;;;20.97;39.31;101360.13;4953927;28;45841;-72
2022/06/02 10:40:12;;;;;;;;;4.75;4.75;;;;;21.08;38.22;101361.16;4928457;28;45574;-73
2022/06/02 10:42:56;;;;;;;;;4.00;3.00;;;;;21.13;38.69;101363.53;4937767;28;45326;-74
2022/06/02 10:45:39;;;;;;;;;5.00;3.75;;;;;21.19;37.83;101360.44;4931258;28;46225;-75
2022/06/02 10:48:23;;;;;;;;;4.25;4.25;;;;;21.16;38.29;101357.91;4933295;28;45377;-75
2022/06/02 10:51:07;;;;;;;;;6.00;4.75;;;;;21.20;38.46;101359.47;4935644;28;45364;-74
2022/06/02 10:53:44;;;;;;;;;5.50;5.50;;;;;21.25;38.21;101351.88;4933228;28;45475;-73
2022/06/02 10:56:40;;;;;;;;;4.50;4.50;;;;;21.34;38.08;101357.66;4936661;28;46323;-73
2022/06/02 10:59:11;;;;;;;;;5.25;3.75;;;;;21.37;37.81;101349.31;4947024;28;45456;-73
2022/06/02 11:01:57;;;;;;;;;5.25;4.00;;;;;21.42;38.00;101349.88;4935653;28;45442;-73
2022/06/02 11:04:47;;;;;;;;;5.25;5.25;;;;;21.42;37.81;101347.16;4935712;28;46615;-73
2022/06/02 11:07:42;;;;;;;;;8.50;6.00;;;;;21.44;37.33;101340.63;4936488;28;47382;-75
2022/06/02 11:10:26;;;;;;;;;4.00;4.00;;;;;21.43;37.04;101322.59;4934918;28;46413;-75
2022/06/02 11:13:27;;;;;;;;;8.00;5.75;;;;;21.52;38.05;101314.78;4936197;28;45422;-75
2022/06/02 11:16:21;;;;;;;;;5.00;5.00;;;;;21.57;37.50;101318.94;4956280;28;45659;-75
2022/06/02 11:19:05;;;;;;;;;4.75;4.75;;;;;21.61;38.00;101312.31;4953792;28;48522;-74
2022/06/02 11:21:36;;;;;;;;;6.50;5.25;;;;;21.69;37.68;101314.50;4935241;28;45351;-75
2022/06/02 11:24:31;;;;;;;;;5.25;5.25;;;;;21.75;36.88;101319.50;4935124;28;45482;-75
2022/06/02 11:27:36;;;;;;;;;6.00;6.00;;;;;21.80;37.30;101314.63;4934692;28;45336;-75
2022/06/02 11:30:39;;;;;;;;;2.75;2.75;;;;;21.85;36.97;101303.41;4934793;28;46524;-75
2022/06/02 11:33:51;;;;;;;;;5.25;3.25;;;;;21.92;36.35;101309.28;4934305;28;45943;-74
2022/06/02 11:36:33;;;;;;;;;5.00;5.00;;;;;21.96;36.45;101311.66;4948743;28;45557;-74
2022/06/02 11:39:11;;;;;;;;;4.00;4.00;;;;;22.02;36.38;101304.94;4945675;28;45246;-74
2022/06/02 11:41:50;;;;;;;;;4.00;4.00;;;;;22.06;35.98;101295.56;4953659;28;45536;-74
2022/06/02 11:44:28;;;;;;;;;4.00;4.00;;;;;22.08;36.05;101288.16;4955368;28;46044;-74
2022/06/02 11:46:56;;;;;;;;;4.25;4.25;;;;;22.13;35.63;101307.72;4958755;28;45260;-74
2022/06/02 11:49:58;;;;;;;;;4.50;3.50;;;;;22.15;35.82;101297.63;4959281;28;45473;-74
2022/06/02 11:52:48;;;;;;;;;5.00;4.00;;;;;22.15;35.84;101297.63;4945485;28;46145;-74
2022/06/02 11:55:17;;;;;;;;;2.00;2.00;;;;;22.16;35.97;101293.91;4958520;28;45462;-74
2022/06/02 11:58:04;;;;;;;;;2.25;2.25;;;;;22.21;35.83;101299.03;4948105;28;45489;-74
2022/06/02 12:00:51;;;;;;;;;5.00;5.00;;;;;22.24;35.83;101292.50;4954475;28;45497;-74
2022/06/02 12:03:36;;;;;;;;;3.50;3.50;;;;;22.30;35.83;101292.06;4933507;28;47193;-74
2022/06/02 12:06:38;;;;;;;;;4.25;3.00;;;;;22.33;35.77;101286.41;4946616;28;45305;-74
2022/06/02 12:09:30;;;;;;;;;5.25;4.75;;;;;22.41;35.41;101277.72;4954908;28;45357;-73
2022/06/02 12:12:20;;;;;;;;;4.00;4.00;;;;;22.44;35.40;101275.63;4940845;28;45529;-72
2022/06/02 12:15:15;;;;;;;;;3.50;3.50;;;;;22.52;35.38;101272.31;4939320;28;46549;-72
2022/06/02 12:17:57;;;;;;;;;4.25;4.25;;;;;22.54;35.48;101267.66;4956249;28;45154;-73
2022/06/02 12:20:41;;;;;;;;;3.75;3.50;;;;;22.55;34.86;101261.22;4953928;28;45391;-74
2022/06/02 12:23:23;;;;;;;;;3.00;3.00;;;;;22.57;34.99;101262.84;4933761;28;45310;-73
2022/06/02 12:25:58;;;;;;;;;4.50;4.50;;;;;22.60;35.19;101256.28;4957011;28;47622;-73
2022/06/02 12:28:29;;;;;;;;;3.00;3.00;;;;;22.66;35.06;101238.66;4943773;28;45411;-73
2022/06/02 12:31:13;;;;;;;;;4.50;4.50;;;;;22.70;34.86;101235.59;4943915;28;45561;-73
2022/06/02 12:33:56;;;;;;;;;4.00;3.00;;;;;22.75;34.79;101236.09;4942414;28;45794;-72
2022/06/02 12:37:06;;;;;;;;;4.00;4.00;;;;;22.81;34.43;101223.88;4958571;28;45465;-73
2022/06/02 12:39:57;;;;;;;;;4.50;4.00;;;;;22.83;34.00;101218.31;4915724;28;45568;-74
2022/06/02 12:42:34;;;;;;;;;5.00;5.00;;;;;22.88;34.11;101227.84;4941649;28;45614;-74
2022/06/02 12:45:11;;;;;;;;;6.00;4.00;;;;;22.90;34.20;101219.56;4931037;28;45235;-74
2022/06/02 12:47:48;;;;;;;;;0.00;0.00;;;;;22.89;34.55;101218.72;4934226;28;46592;-72
2022/06/02 12:50:54;;;;;;;;;3.00;3.00;;;;;22.88;33.79;101211.53;4922867;28;45549;-71
2022/06/02 12:53:47;;;;;;;;;6.75;5.50;;;;;22.94;33.87;101218.38;4952040;28;45519;-72
2022/06/02 12:56:34;;;;;;;;;5.00;3.00;;;;;22.97;33.97;101209.06;4939719;28;45305;-71